createdAt,value
2017-03-21T00:00:07.033Z,85.51
2017-03-21T00:01:16.294Z,84.75
2017-03-21T00:02:25.867Z,85.32
2017-03-21T00:03:34.527Z,85.41
2017-03-21T00:04:43.854Z,85.32
2017-03-21T00:05:52.819Z,85.99
2017-03-21T00:07:01.483Z,85.7
2017-03-21T00:08:10.751Z,85.32
2017-03-21T00:09:20.916Z,86.08
2017-03-21T00:10:30.483Z,85.7
2017-03-21T00:11:39.146Z,85.6
2017-03-21T00:12:48.110Z,85.89
2017-03-21T00:13:57.370Z,86.55
2017-03-21T00:15:06.639Z,86.36
2017-03-21T00:16:15.601Z,85.8
2017-03-21T00:17:24.702Z,85.8
2017-03-21T00:18:33.706Z,86.46
2017-03-21T00:19:43.694Z,85.99
2017-03-21T00:20:52.668Z,85.8
2017-03-21T00:22:01.631Z,85.51
2017-03-21T00:23:10.910Z,85.41
2017-03-21T00:24:20.486Z,85.89
2017-03-21T00:25:29.157Z,85.7
2017-03-21T00:26:38.621Z,86.08
2017-03-21T00:27:47.880Z,86.08
2017-03-21T00:28:56.555Z,85.7
2017-03-21T00:30:06.206Z,85.89
2017-03-21T00:31:15.192Z,85.8
2017-03-21T00:32:23.847Z,85.89
2017-03-21T00:33:33.112Z,85.89
2017-03-21T00:34:42.402Z,85.51
2017-03-21T00:35:51.365Z,85.51
2017-03-21T00:37:00.347Z,85.22
2017-03-21T00:38:09.693Z,85.03
2017-03-21T00:39:18.967Z,85.41
2017-03-21T00:40:28.853Z,85.6
2017-03-21T00:41:37.982Z,85.6
2017-03-21T00:42:47.092Z,85.32
2017-03-21T00:43:56.364Z,85.32
2017-03-21T00:45:06.040Z,85.99
2017-03-21T00:46:15.322Z,86.08
2017-03-21T00:47:23.981Z,85.99
2017-03-21T00:48:33.247Z,86.65
2017-03-21T00:49:43.113Z,86.55
2017-03-21T00:50:52.380Z,86.08
2017-03-21T00:52:01.640Z,85.89
2017-03-21T00:53:10.685Z,85.99
2017-03-21T00:54:20.269Z,85.89
2017-03-21T00:55:29.826Z,86.08
2017-03-21T00:56:38.776Z,85.99
2017-03-21T00:57:48.051Z,85.99
2017-03-21T00:58:57.940Z,86.36
2017-03-21T01:00:06.604Z,85.89
2017-03-21T01:01:15.919Z,85.89
2017-03-21T01:30:24.020Z,85.51
2017-03-21T01:31:32.985Z,85.7
2017-03-21T01:32:41.668Z,85.32
2017-03-21T01:33:51.553Z,85.41
2017-03-21T01:35:00.538Z,85.22
2017-03-21T01:36:09.518Z,85.7
2017-03-21T01:37:18.189Z,85.41
2017-03-21T01:38:26.856Z,85.32
2017-03-21T01:39:36.434Z,85.22
2017-03-21T01:40:45.410Z,85.13
2017-03-21T01:41:54.681Z,85.13
2017-03-21T01:43:03.968Z,85.13
2017-03-21T01:44:13.545Z,85.41
2017-03-21T01:45:22.528Z,84.65
2017-03-21T01:46:31.195Z,85.41
2017-03-21T01:47:39.867Z,85.32
2017-03-21T01:48:49.444Z,84.94
2017-03-21T01:49:58.425Z,84.84
2017-03-21T01:51:07.100Z,84.75
2017-03-21T01:52:16.069Z,84.75
2017-03-21T01:53:25.649Z,84.84
2017-03-21T01:54:35.527Z,84.65
2017-03-21T01:55:44.508Z,84.84
2017-03-21T01:56:53.184Z,84.94
2017-03-21T01:58:02.460Z,84.84
2017-03-21T01:59:12.041Z,84.75
2017-03-21T02:00:21.912Z,85.03
2017-03-21T02:01:30.583Z,85.32
2017-03-21T02:02:39.563Z,85.22
2017-03-21T02:03:49.176Z,85.22
2017-03-21T02:04:58.759Z,85.03
2017-03-21T02:06:08.043Z,84.84
2017-03-21T02:07:17.317Z,85.51
2017-03-21T02:08:26.591Z,85.13
2017-03-21T02:09:36.218Z,85.6
2017-03-21T02:10:45.484Z,85.51
2017-03-21T02:11:54.159Z,85.7
2017-03-21T02:13:02.831Z,85.32
2017-03-21T02:14:12.104Z,85.03
2017-03-21T02:15:21.675Z,86.08
2017-03-21T02:16:30.345Z,86.18
2017-03-21T02:17:39.329Z,85.89
2017-03-21T02:18:48.905Z,85.89
2017-03-21T02:19:58.782Z,85.84
2017-03-21T02:21:07.757Z,85.8
2017-03-21T02:22:16.421Z,86.18
2017-03-21T02:23:25.702Z,85.41
2017-03-21T02:24:34.985Z,86.36
2017-03-21T02:25:44.560Z,85.89
2017-03-21T02:26:53.238Z,86.08
2017-03-21T02:28:02.214Z,85.89
2017-03-21T02:29:11.499Z,85.99
2017-03-21T02:30:20.531Z,86.18
2017-03-21T02:31:29.523Z,86.18
2017-03-21T02:32:38.195Z,86.08
2017-03-21T02:33:47.165Z,86.18
2017-03-21T02:34:56.447Z,86.36
2017-03-21T02:36:05.709Z,86.18
2017-03-21T02:37:14.378Z,85.89
2017-03-21T02:38:23.050Z,86.08
2017-03-21T02:39:32.333Z,86.18
2017-03-21T02:40:41.308Z,85.7
2017-03-21T02:41:50.283Z,86.08
2017-03-21T02:42:59.565Z,86.65
2017-03-21T02:44:08.852Z,86.36
2017-03-21T02:45:18.434Z,86.55
2017-03-21T02:46:27.444Z,86.65
2017-03-21T02:47:36.117Z,85.89
2017-03-21T02:48:45.393Z,86.27
2017-03-21T02:49:54.670Z,85.8
2017-03-21T02:51:04.566Z,86.08
2017-03-21T02:52:13.544Z,86.08
2017-03-21T02:53:22.228Z,85.99
2017-03-21T02:54:31.506Z,86.08
2017-03-21T02:55:40.781Z,86.18
2017-03-21T02:56:49.463Z,85.41
2017-03-21T02:57:58.444Z,85.89
2017-03-21T02:59:08.028Z,85.89
2017-03-21T03:00:17.614Z,85.89
2017-03-21T03:01:26.280Z,86.27
2017-03-21T03:02:34.958Z,85.99
2017-03-21T03:03:43.943Z,86.08
2017-03-21T03:04:53.227Z,86.27
2017-03-21T03:06:02.838Z,85.89
2017-03-21T03:07:11.503Z,86.08
2017-03-21T03:08:20.483Z,86.55
2017-03-21T03:09:30.373Z,86.75
2017-03-21T03:10:39.344Z,86.27
2017-03-21T03:11:48.318Z,86.27
2017-03-21T03:12:57.284Z,87.03
2017-03-21T03:14:06.873Z,87.79
2017-03-21T03:15:16.463Z,87.41
2017-03-21T03:16:25.135Z,86.75
2017-03-21T03:17:33.817Z,87.03
2017-03-21T03:18:43.708Z,87.13
2017-03-21T03:19:53.286Z,87.03
2017-03-21T03:21:02.853Z,86.84
2017-03-21T03:22:11.825Z,87.03
2017-03-21T03:23:20.794Z,87.23
2017-03-21T03:24:30.078Z,87.13
2017-03-21T03:25:38.751Z,86.7
2017-03-21T03:26:47.426Z,86.8
2017-03-21T03:27:56.395Z,87.27
2017-03-21T03:29:05.973Z,87.18
2017-03-21T03:30:15.250Z,87.85
2017-03-21T03:31:24.230Z,88.04
2017-03-21T03:32:32.897Z,87.85
2017-03-21T03:33:42.790Z,87.56
2017-03-21T03:34:51.770Z,87.85
2017-03-21T03:36:01.351Z,87.65
2017-03-21T03:37:10.314Z,88.23
2017-03-21T03:38:19.284Z,88.13
2017-03-21T03:39:28.865Z,87.85
2017-03-21T03:40:38.139Z,88.51
2017-03-21T03:41:47.113Z,88.04
2017-03-21T03:42:55.779Z,88.23
2017-03-21T03:44:05.061Z,88.32
2017-03-21T03:45:14.640Z,87.85
2017-03-21T03:46:23.318Z,88.13
2017-03-21T03:47:32.612Z,88.42
2017-03-21T03:48:41.891Z,87.9
2017-03-21T03:49:51.475Z,88.37
2017-03-21T03:51:01.062Z,88.46
2017-03-21T03:52:10.351Z,87.9
2017-03-21T03:53:19.636Z,88.37
2017-03-21T03:54:28.613Z,88.56
2017-03-21T03:55:38.188Z,87.9
2017-03-21T03:56:46.888Z,88.85
2017-03-21T03:57:55.863Z,89.04
2017-03-21T03:59:05.453Z,88.75
2017-03-21T04:00:15.039Z,88.94
2017-03-21T04:01:23.716Z,88.85
2017-03-21T04:02:32.705Z,89.32
2017-03-21T04:03:41.981Z,89.51
2017-03-21T04:04:51.262Z,89.61
2017-03-21T04:06:00.837Z,89.99
2017-03-21T04:07:09.507Z,89.89
2017-03-21T04:08:18.778Z,89.7
2017-03-21T04:09:28.361Z,89.51
2017-03-21T04:10:37.023Z,89.7
2017-03-21T04:11:45.689Z,89.89
2017-03-21T04:12:54.962Z,89.7
2017-03-21T04:14:03.946Z,89.99
2017-03-21T04:15:12.923Z,89.8
2017-03-21T04:16:22.192Z,89.61
2017-03-21T04:17:31.166Z,89.23
2017-03-21T04:18:40.139Z,89.32
2017-03-21T04:19:50.017Z,89.32
2017-03-21T04:20:59.593Z,89.04
2017-03-21T04:22:08.267Z,89.23
2017-03-21T04:23:17.550Z,89.14
2017-03-21T04:24:27.730Z,89.23
2017-03-21T04:25:37.616Z,89.42
2017-03-21T04:26:46.287Z,89.7
2017-03-21T04:27:55.556Z,89.51
2017-03-21T04:29:04.535Z,89.42
2017-03-21T04:30:13.515Z,89.23
2017-03-21T04:31:22.186Z,89.42
2017-03-21T04:32:30.853Z,89.51
2017-03-21T04:33:40.131Z,89.32
2017-03-21T04:34:49.712Z,89.23
2017-03-21T04:35:59.292Z,88.56
2017-03-21T04:37:08.557Z,88.37
2017-03-21T04:38:17.535Z,88.09
2017-03-21T04:39:26.828Z,88.56
2017-03-21T04:40:36.102Z,87.71
2017-03-21T04:41:45.083Z,87.61
2017-03-21T04:42:54.358Z,87.71
2017-03-21T04:44:03.634Z,87.9
2017-03-21T04:45:13.227Z,87.9
2017-03-21T04:46:22.205Z,88.09
2017-03-21T04:47:31.186Z,88.18
2017-03-21T04:48:40.763Z,87.52
2017-03-21T04:49:50.037Z,87.71
2017-03-21T04:50:59.323Z,87.8
2017-03-21T04:52:08.303Z,87.9
2017-03-21T04:53:16.978Z,87.42
2017-03-21T04:54:27.207Z,87.71
2017-03-21T04:55:35.879Z,88.56
2017-03-21T04:56:45.154Z,87.99
2017-03-21T04:57:53.829Z,87.99
2017-03-21T04:59:03.701Z,88.18
2017-03-21T05:00:13.575Z,88.46
2017-03-21T05:01:22.856Z,88.37
2017-03-21T05:02:31.531Z,88.37
2017-03-21T05:03:41.712Z,88.18
2017-03-21T05:04:51.292Z,88.37
2017-03-21T05:06:00.577Z,88.37
2017-03-21T05:07:09.554Z,88.37
2017-03-21T05:08:18.525Z,88.28
2017-03-21T05:09:27.509Z,88.09
2017-03-21T05:10:37.390Z,88.09
2017-03-21T05:11:46.699Z,88.09
2017-03-21T05:12:55.680Z,87.42
2017-03-21T05:14:04.654Z,88.28
2017-03-21T05:15:13.922Z,87.8
2017-03-21T05:16:22.888Z,87.8
2017-03-21T05:17:31.564Z,87.99
2017-03-21T05:18:41.439Z,87.52
2017-03-21T05:19:51.317Z,87.13
2017-03-21T05:21:00.893Z,86.94
2017-03-21T05:22:10.169Z,86.94
2017-03-21T05:23:19.148Z,86.85
2017-03-21T05:24:28.430Z,87.04
2017-03-21T05:25:37.716Z,86.94
2017-03-21T05:26:46.385Z,87.04
2017-03-21T05:27:55.052Z,86.94
2017-03-21T05:29:04.333Z,87.04
2017-03-21T05:30:13.906Z,86.47
2017-03-21T05:31:22.584Z,86.47
2017-03-21T05:32:31.247Z,86.28
2017-03-21T05:33:41.134Z,86.57
2017-03-21T05:34:50.713Z,86.09
2017-03-21T05:36:00.284Z,86.38
2017-03-21T05:37:09.255Z,86.18
2017-03-21T05:38:18.235Z,86.47
2017-03-21T05:39:27.834Z,86.57
2017-03-21T05:40:38.007Z,85.99
2017-03-21T05:41:46.970Z,86.28
2017-03-21T05:42:55.895Z,86.18
2017-03-21T05:44:05.481Z,85.71
2017-03-21T05:45:15.056Z,86.47
2017-03-21T05:46:24.322Z,86.66
2017-03-21T05:47:33.296Z,86.85
2017-03-21T05:48:43.181Z,86.85
2017-03-21T05:49:52.971Z,86.38
2017-03-21T05:51:02.553Z,86.38
2017-03-21T05:52:11.229Z,86.18
2017-03-21T05:53:20.513Z,86.66
2017-03-21T05:54:30.096Z,85.86
2017-03-21T05:55:39.676Z,85.95
2017-03-21T05:56:48.946Z,86.33
2017-03-21T05:57:58.222Z,85.86
2017-03-21T05:59:07.494Z,86.05
2017-03-21T06:00:17.082Z,86.24
2017-03-21T06:01:26.047Z,85.95
2017-03-21T06:02:35.324Z,85.76
2017-03-21T06:03:44.602Z,85
2017-03-21T06:04:54.481Z,85.57
2017-03-21T06:06:03.143Z,85.47
2017-03-21T06:07:12.111Z,85.19
2017-03-21T06:08:20.785Z,85.66
2017-03-21T06:09:30.364Z,85.38
2017-03-21T06:10:39.047Z,85.19
2017-03-21T06:11:48.021Z,85.76
2017-03-21T06:12:57.001Z,85.86
2017-03-21T06:14:05.985Z,84.91
2017-03-21T06:15:15.264Z,85.38
2017-03-21T06:16:23.931Z,85.28
2017-03-21T06:17:32.610Z,85.38
2017-03-21T06:18:41.889Z,85.19
2017-03-21T06:19:51.770Z,85.57
2017-03-21T06:21:01.035Z,85.38
2017-03-21T06:22:09.712Z,84.52
2017-03-21T06:23:18.680Z,85.95
2017-03-21T06:24:28.269Z,86.33
2017-03-21T06:25:37.541Z,86.33
2017-03-21T06:26:46.811Z,85.95
2017-03-21T06:27:55.473Z,85.38
2017-03-21T06:29:04.156Z,85.28
2017-03-21T06:30:13.441Z,85.38
2017-03-21T06:31:22.409Z,85.28
2017-03-21T06:32:31.383Z,85.28
2017-03-21T06:33:40.661Z,85.76
2017-03-21T06:34:50.243Z,85.57
2017-03-21T06:35:59.898Z,85.28
2017-03-21T06:37:08.563Z,85.86
2017-03-21T06:38:17.238Z,85.76
2017-03-21T06:39:26.816Z,85.76
2017-03-21T06:40:36.409Z,85.57
2017-03-21T06:41:45.383Z,85.76
2017-03-21T06:42:54.369Z,85.66
2017-03-21T06:44:04.244Z,85.76
2017-03-21T06:45:13.821Z,85.66
2017-03-21T06:46:22.504Z,85.95
2017-03-21T06:47:31.787Z,85.47
2017-03-21T06:48:41.383Z,85.57
2017-03-21T06:49:50.972Z,84.95
2017-03-21T06:51:00.270Z,85.33
2017-03-21T06:52:09.244Z,85.04
2017-03-21T06:53:18.216Z,85.04
2017-03-21T06:54:27.796Z,84.95
2017-03-21T06:55:36.462Z,85.24
2017-03-21T06:56:45.138Z,84.47
2017-03-21T06:57:54.118Z,84.85
2017-03-21T06:59:03.100Z,84.47
2017-03-21T07:00:12.371Z,83.71
2017-03-21T07:01:21.649Z,84.85
2017-03-21T07:02:30.932Z,84.19
2017-03-21T07:03:40.204Z,85.52
2017-03-21T07:04:50.083Z,85.37
2017-03-21T07:05:59.673Z,84.42
2017-03-21T07:07:08.357Z,84.66
2017-03-21T07:08:17.941Z,84.09
2017-03-21T07:09:27.524Z,84.19
2017-03-21T07:10:36.802Z,84.47
2017-03-21T07:11:45.466Z,84.38
2017-03-21T07:12:54.439Z,84.38
2017-03-21T07:14:03.414Z,83.71
2017-03-21T07:15:12.996Z,84.76
2017-03-21T07:16:21.668Z,84.66
2017-03-21T07:17:30.645Z,84.19
2017-03-21T07:18:40.221Z,84.38
2017-03-21T07:19:49.509Z,84.19
2017-03-21T07:20:59.090Z,84.28
2017-03-21T07:22:08.063Z,84.56
2017-03-21T07:23:17.354Z,84.47
2017-03-21T07:24:26.639Z,84.38
2017-03-21T07:25:36.514Z,84.47
2017-03-21T07:26:45.205Z,84.38
2017-03-21T07:27:53.883Z,84.47
2017-03-21T07:29:03.452Z,84.28
2017-03-21T07:30:12.420Z,84.19
2017-03-21T07:31:21.410Z,84.42
2017-03-21T07:32:30.691Z,84.13
2017-03-21T07:33:39.977Z,83.85
2017-03-21T07:34:49.563Z,83.85
2017-03-21T07:35:58.536Z,84.13
2017-03-21T07:37:08.103Z,84.13
2017-03-21T07:38:17.075Z,83.18
2017-03-21T07:39:26.371Z,84.61
2017-03-21T07:40:35.943Z,84.89
2017-03-21T07:41:44.922Z,84.04
2017-03-21T07:42:53.610Z,83.89
2017-03-21T07:44:02.885Z,83.75
2017-03-21T07:45:12.471Z,83.28
2017-03-21T07:46:22.054Z,83.47
2017-03-21T07:47:30.747Z,82.93
2017-03-21T07:48:40.037Z,82.75
2017-03-21T07:49:49.316Z,82.93
2017-03-21T07:50:58.596Z,82.93
2017-03-21T07:52:07.275Z,82.75
2017-03-21T07:53:16.561Z,82.46
2017-03-21T07:54:25.839Z,82.6
2017-03-21T07:55:35.131Z,82.27
2017-03-21T07:56:44.103Z,82.56
2017-03-21T07:57:52.782Z,83.32
2017-03-21T07:59:02.064Z,83.98
2017-03-21T08:00:11.349Z,84.17
2017-03-21T08:01:20.320Z,84.23
2017-03-21T08:02:29.001Z,84.52
2017-03-21T08:03:37.982Z,85.08
2017-03-21T08:04:46.960Z,85.47
2017-03-21T08:05:56.238Z,85.61
2017-03-21T08:07:05.512Z,85.61
2017-03-21T08:08:14.195Z,85.99
2017-03-21T08:09:23.176Z,86.85
2017-03-21T08:10:32.771Z,86.94
2017-03-21T08:11:41.434Z,87.56
2017-03-21T08:12:50.704Z,87.52
2017-03-21T08:13:59.674Z,87.04
2017-03-21T08:15:08.342Z,86.99
2017-03-21T08:16:17.918Z,87.13
2017-03-21T08:17:26.589Z,87.75
2017-03-21T08:18:36.169Z,87.56
2017-03-21T08:19:45.448Z,86.9
2017-03-21T08:20:54.478Z,86.99
2017-03-21T08:22:03.144Z,86.9
2017-03-21T08:23:11.816Z,86.8
2017-03-21T08:24:21.398Z,86.9
2017-03-21T08:25:30.682Z,86.22
2017-03-21T08:26:39.352Z,86.04
2017-03-21T08:27:48.638Z,85.75
2017-03-21T08:28:58.236Z,85.66
2017-03-21T08:30:07.220Z,85.8
2017-03-21T08:31:16.501Z,85.56
2017-03-21T08:32:25.479Z,85.28
2017-03-21T08:33:34.462Z,85.89
2017-03-21T08:34:43.736Z,85.56
2017-03-21T08:35:53.009Z,85.7
2017-03-21T08:37:02.287Z,85.28
2017-03-21T08:38:11.560Z,85.13
2017-03-21T08:39:20.231Z,85.37
2017-03-21T08:40:29.214Z,85.08
2017-03-21T08:41:37.890Z,85.75
2017-03-21T08:42:46.566Z,85.85
2017-03-21T08:43:55.234Z,85.47
2017-03-21T08:45:03.912Z,85.75
2017-03-21T08:46:12.578Z,86.22
2017-03-21T08:47:21.851Z,86.22
2017-03-21T08:48:30.529Z,86.22
2017-03-21T08:49:40.057Z,86.7
2017-03-21T08:50:49.037Z,85.94
2017-03-21T08:51:58.316Z,85.94
2017-03-21T08:53:06.999Z,85.94
2017-03-21T08:54:16.293Z,86.18
2017-03-21T08:55:25.569Z,85.99
2017-03-21T08:56:34.236Z,87.13
2017-03-21T08:57:43.207Z,87.42
2017-03-21T08:58:51.872Z,87.52
2017-03-21T09:00:00.847Z,87.32
2017-03-21T09:01:09.774Z,87.19
2017-03-21T09:02:18.748Z,87.9
2017-03-21T09:03:28.030Z,89.42
2017-03-21T09:04:36.713Z,90.37
2017-03-21T09:05:45.378Z,91.04
2017-03-21T09:06:54.046Z,91.52
2017-03-21T09:08:03.324Z,91.99
2017-03-21T09:09:12.310Z,92.46
2017-03-21T09:10:20.980Z,92.37
2017-03-21T09:11:29.690Z,91.99
2017-03-21T09:12:38.661Z,92.75
2017-03-21T09:13:47.630Z,91.89
2017-03-21T09:14:56.297Z,91.99
2017-03-21T09:16:04.967Z,91.99
2017-03-21T09:17:13.640Z,92.18
2017-03-21T09:18:22.306Z,92.56
2017-03-21T09:19:30.981Z,93.23
2017-03-21T09:20:39.947Z,92.66
2017-03-21T09:21:48.624Z,93.04
2017-03-21T09:22:57.296Z,93.04
2017-03-21T09:24:05.958Z,93.23
2017-03-21T09:25:15.528Z,94.37
2017-03-21T09:26:24.199Z,94.13
2017-03-21T09:27:32.874Z,95.17
2017-03-21T09:28:41.576Z,95.08
2017-03-21T09:29:50.558Z,93.04
2017-03-21T09:30:59.533Z,91.8
2017-03-21T09:32:08.195Z,91.75
2017-03-21T09:33:16.859Z,91.94
2017-03-21T09:34:25.531Z,92.51
2017-03-21T09:35:35.110Z,92.46
2017-03-21T09:36:43.785Z,90.99
2017-03-21T09:37:52.465Z,90.23
2017-03-21T09:39:01.453Z,91.08
2017-03-21T09:40:10.120Z,90.33
2017-03-21T09:41:18.790Z,89.8
2017-03-21T09:42:28.064Z,89.23
2017-03-21T09:43:36.730Z,89.32
2017-03-21T09:44:45.406Z,89.23
2017-03-21T09:45:54.067Z,88.37
2017-03-21T09:47:02.735Z,89.23
2017-03-21T09:48:11.414Z,87.13
2017-03-21T09:49:20.695Z,88.09
2017-03-21T09:50:29.370Z,89.14
2017-03-21T09:51:38.043Z,89.32
2017-03-21T09:52:47.016Z,89.7
2017-03-21T09:53:55.688Z,89.84
2017-03-21T09:55:04.363Z,88.46
2017-03-21T09:56:13.642Z,88.93
2017-03-21T09:57:22.913Z,87.23
2017-03-21T09:58:31.583Z,87.27
2017-03-21T09:59:41.159Z,87.08
2017-03-21T10:00:50.125Z,87.8
2017-03-21T10:01:59.097Z,88.28
2017-03-21T10:03:08.076Z,87.61
2017-03-21T10:04:16.754Z,88.09
2017-03-21T10:05:25.453Z,88.66
2017-03-21T10:06:34.433Z,88.18
2017-03-21T10:07:43.102Z,88.37
2017-03-21T10:08:52.073Z,88.56
2017-03-21T10:10:00.732Z,87.71
2017-03-21T10:11:09.396Z,87.32
2017-03-21T10:12:18.071Z,87.13
2017-03-21T10:13:27.034Z,86.94
2017-03-21T10:14:35.698Z,86.76
2017-03-21T10:15:44.667Z,87.04
2017-03-21T10:16:53.337Z,85.9
2017-03-21T10:18:02.006Z,86.28
2017-03-21T10:19:10.972Z,85.8
2017-03-21T10:20:19.647Z,85.24
2017-03-21T10:21:28.623Z,84.66
2017-03-21T10:22:37.592Z,85.61
2017-03-21T10:23:46.865Z,84.66
2017-03-21T10:24:55.846Z,85.14
2017-03-21T10:26:04.522Z,84.38
2017-03-21T10:27:13.194Z,85.33
2017-03-21T10:28:21.864Z,84.95
2017-03-21T10:29:30.531Z,85.42
2017-03-21T10:30:39.503Z,85.66
2017-03-21T10:31:48.478Z,84.52
2017-03-21T10:32:57.178Z,84.08
2017-03-21T10:34:06.168Z,82.98
2017-03-21T10:35:14.849Z,82.03
2017-03-21T10:36:23.522Z,81.55
2017-03-21T10:37:32.485Z,80.88
2017-03-21T10:38:41.152Z,82.31
2017-03-21T10:39:50.440Z,81.74
2017-03-21T10:40:59.422Z,81.93
2017-03-21T10:42:08.097Z,82.12
2017-03-21T10:43:16.783Z,80.79
2017-03-21T10:44:25.462Z,80.79
2017-03-21T10:45:34.434Z,81.59
2017-03-21T10:46:43.410Z,81.68
2017-03-21T10:47:52.087Z,80.44
2017-03-21T10:49:00.769Z,81.3
2017-03-21T10:50:10.041Z,80.35
2017-03-21T10:51:18.717Z,79.55
2017-03-21T10:52:27.391Z,80.31
2017-03-21T10:53:36.971Z,82.6
2017-03-21T10:54:45.987Z,80.16
2017-03-21T10:55:54.984Z,82.92
2017-03-21T10:57:03.660Z,79.3
2017-03-21T10:58:12.642Z,80.73
2017-03-21T10:59:21.920Z,81.21
2017-03-21T11:00:30.600Z,79.4
2017-03-21T11:01:39.881Z,79.83
2017-03-21T11:02:48.861Z,79.46
2017-03-21T11:03:58.143Z,79.03
2017-03-21T11:05:07.118Z,80.08
2017-03-21T11:06:16.098Z,80.55
2017-03-21T11:07:24.780Z,80.84
2017-03-21T11:08:33.460Z,79.41
2017-03-21T11:09:43.047Z,79.99
2017-03-21T11:10:51.726Z,79.41
2017-03-21T11:12:00.742Z,78.46
2017-03-21T11:13:09.421Z,78.59
2017-03-21T11:14:18.099Z,78.59
2017-03-21T11:15:27.076Z,78.88
2017-03-21T11:16:35.752Z,78.22
2017-03-21T11:17:44.723Z,80.08
2017-03-21T11:18:53.440Z,80.18
2017-03-21T11:20:02.420Z,78.56
2017-03-21T11:21:11.095Z,78.08
2017-03-21T11:22:20.073Z,78.94
2017-03-21T11:23:29.355Z,80.18
2017-03-21T11:24:38.032Z,80.84
2017-03-21T11:25:46.712Z,79.6
2017-03-21T11:26:55.990Z,78.37
2017-03-21T11:28:05.561Z,78.27
2017-03-21T11:29:14.848Z,77.61
2017-03-21T11:30:23.857Z,77
2017-03-21T11:31:32.840Z,79.85
2017-03-21T11:32:41.512Z,77.95
2017-03-21T11:33:50.487Z,80.33
2017-03-21T11:34:59.164Z,79.19
2017-03-21T11:36:07.853Z,80.42
2017-03-21T11:37:16.538Z,78.33
2017-03-21T11:38:25.818Z,79.85
2017-03-21T11:39:35.085Z,79.57
2017-03-21T11:40:44.368Z,79.28
2017-03-21T11:41:53.043Z,79.19
2017-03-21T11:43:02.025Z,81.13
2017-03-21T11:44:11.032Z,76.46
2017-03-21T11:45:19.708Z,79.7
2017-03-21T11:46:28.391Z,77.55
2017-03-21T11:47:37.069Z,77.07
2017-03-21T11:48:45.760Z,76.88
2017-03-21T11:49:55.044Z,77.17
2017-03-21T11:51:04.033Z,75.26
2017-03-21T11:52:12.709Z,77.07
2017-03-21T11:53:21.690Z,77.55
2017-03-21T11:54:30.970Z,76.21
2017-03-21T11:55:39.643Z,77.64
2017-03-21T11:56:48.318Z,76.5
2017-03-21T11:57:56.992Z,77.83
2017-03-21T11:59:05.683Z,76.88
2017-03-21T12:00:14.355Z,78.69
2017-03-21T12:01:23.343Z,77.55
2017-03-21T12:02:32.021Z,76.98
2017-03-21T12:03:40.998Z,77.74
2017-03-21T12:04:49.977Z,79.27
2017-03-21T12:05:58.657Z,77.45
2017-03-21T12:07:07.370Z,76.79
2017-03-21T12:08:16.050Z,75.45
2017-03-21T12:09:24.739Z,78.03
2017-03-21T12:10:33.412Z,76.69
2017-03-21T12:11:42.087Z,77.17
2017-03-21T12:12:51.064Z,74.31
2017-03-21T12:14:00.648Z,73.68
2017-03-21T12:15:09.622Z,68.24
2017-03-21T12:16:18.594Z,66.91
2017-03-21T12:17:27.270Z,67.86
2017-03-21T12:18:36.246Z,65.58
2017-03-21T12:19:45.527Z,66.63
2017-03-21T12:20:54.503Z,64.91
2017-03-21T12:22:03.178Z,67.77
2017-03-21T12:23:11.859Z,71.39
2017-03-21T12:24:21.133Z,71.68
2017-03-21T12:25:30.108Z,69.29
2017-03-21T12:26:38.773Z,68.05
2017-03-21T12:27:47.455Z,61.04
2017-03-21T12:28:56.429Z,57.5
2017-03-21T12:30:06.310Z,53.97
2017-03-21T12:31:15.282Z,58.84
2017-03-21T12:32:24.257Z,55.88
2017-03-21T12:33:33.536Z,52.64
2017-03-21T12:34:42.821Z,55.02
2017-03-21T12:35:52.105Z,55.31
2017-03-21T12:37:01.083Z,53.31
2017-03-21T12:38:09.782Z,51.68
2017-03-21T12:39:18.759Z,51.4
2017-03-21T12:40:28.092Z,52.92
2017-03-21T12:41:36.773Z,49.02
2017-03-21T12:42:45.751Z,47.97
2017-03-21T12:43:55.642Z,52.45
2017-03-21T12:45:04.922Z,51.4
2017-03-21T12:46:13.895Z,51.4
2017-03-21T12:47:22.567Z,51.21
2017-03-21T12:48:31.577Z,51.21
2017-03-21T12:49:40.252Z,52.64
2017-03-21T12:50:49.826Z,53.31
2017-03-21T12:51:59.109Z,51.4
2017-03-21T12:53:07.787Z,52.23
2017-03-21T12:54:16.762Z,52.23
2017-03-21T12:55:25.445Z,53.28
2017-03-21T12:56:34.125Z,55.95
2017-03-21T12:57:42.797Z,54.14
2017-03-21T12:58:51.779Z,51.37
2017-03-21T13:00:01.059Z,49.56
2017-03-21T13:01:09.732Z,52.52
2017-03-21T13:02:18.410Z,54.04
2017-03-21T13:03:27.380Z,56.04
2017-03-21T13:04:36.953Z,53.95
2017-03-21T13:05:45.923Z,53.09
2017-03-21T13:06:54.894Z,52.8
2017-03-21T13:08:03.865Z,52.61
2017-03-21T13:09:12.535Z,53
2017-03-21T13:10:21.513Z,50.52
2017-03-21T13:11:30.489Z,50.23
2017-03-21T13:12:39.173Z,51.56
2017-03-21T13:13:48.452Z,50.8
2017-03-21T13:14:57.133Z,54.52
2017-03-21T13:16:06.121Z,55.47
2017-03-21T13:17:14.794Z,50.54
2017-03-21T13:18:23.767Z,50.73
2017-03-21T13:19:33.045Z,52.42
2017-03-21T13:20:42.013Z,51.66
2017-03-21T13:21:50.992Z,50.52
2017-03-21T13:22:59.964Z,48.92
2017-03-21T13:24:09.248Z,49.37
2017-03-21T13:25:17.926Z,51.66
2017-03-21T13:26:26.602Z,49.95
2017-03-21T13:27:35.580Z,52.42
2017-03-21T13:28:44.256Z,50.13
2017-03-21T13:29:53.541Z,50.71
2017-03-21T13:31:02.514Z,53
2017-03-21T13:32:11.197Z,54.52
2017-03-21T13:33:19.872Z,54.24
2017-03-21T13:34:29.151Z,51.12
2017-03-21T13:35:38.124Z,51.68
2017-03-21T13:36:47.111Z,48.54
2017-03-21T13:37:56.076Z,49.11
2017-03-21T13:39:04.755Z,52.36
2017-03-21T13:40:13.739Z,50.07
2017-03-21T13:41:22.408Z,52.83
2017-03-21T13:42:31.379Z,50.45
2017-03-21T13:43:40.653Z,53.02
2017-03-21T13:44:49.329Z,52.45
2017-03-21T13:45:58.304Z,52.92
2017-03-21T13:47:07.281Z,52.36
2017-03-21T13:48:15.956Z,53.59
2017-03-21T13:49:24.936Z,54.8
2017-03-21T13:50:33.909Z,53.09
2017-03-21T13:51:42.583Z,52.8
2017-03-21T13:52:51.257Z,55.19
2017-03-21T13:53:59.934Z,54.04
2017-03-21T13:55:08.923Z,54.14
2017-03-21T13:56:17.609Z,55.19
2017-03-21T13:57:26.595Z,55.95
2017-03-21T13:58:35.565Z,56.43
2017-03-21T13:59:44.549Z,57.67
2017-03-21T14:00:53.222Z,56.62
2017-03-21T14:02:01.893Z,55.57
2017-03-21T14:03:10.875Z,57.95
2017-03-21T14:04:19.855Z,57.86
2017-03-21T14:05:29.439Z,53.5
2017-03-21T14:06:38.412Z,54.93
2017-03-21T14:07:47.395Z,54.8
2017-03-21T14:08:56.677Z,54.04
2017-03-21T14:10:05.662Z,54.43
2017-03-21T14:11:14.341Z,53.38
2017-03-21T14:12:23.616Z,54.61
2017-03-21T14:13:32.898Z,54.71
2017-03-21T14:14:42.167Z,56.52
2017-03-21T14:15:50.836Z,56.62
2017-03-21T14:17:00.160Z,54.43
2017-03-21T14:18:08.840Z,54.14
2017-03-21T14:19:18.118Z,54.14
2017-03-21T14:20:26.796Z,51.85
2017-03-21T14:21:35.778Z,51.76
2017-03-21T14:22:44.753Z,51.37
2017-03-21T14:23:54.025Z,50.4
2017-03-21T14:25:02.997Z,50.68
2017-03-21T14:26:12.277Z,51.73
2017-03-21T14:27:21.256Z,50.11
2017-03-21T14:28:29.927Z,51.35
2017-03-21T14:29:38.909Z,49.16
2017-03-21T14:30:47.581Z,49.63
2017-03-21T14:31:56.556Z,51.16
2017-03-21T14:33:05.530Z,51.16
2017-03-21T14:34:14.502Z,50.21
2017-03-21T14:35:23.176Z,49.92
2017-03-21T14:36:32.483Z,52.97
2017-03-21T14:37:41.163Z,54.11
2017-03-21T14:38:49.854Z,52.11
2017-03-21T14:39:58.530Z,51.76
2017-03-21T14:41:07.502Z,50.42
2017-03-21T14:42:16.472Z,50.32
2017-03-21T14:43:25.153Z,52.49
2017-03-21T14:44:34.117Z,54.21
2017-03-21T14:45:43.088Z,52.78
2017-03-21T14:46:51.755Z,52.78
2017-03-21T14:48:00.737Z,52.87
2017-03-21T14:49:09.715Z,56.49
2017-03-21T14:50:19.009Z,56.02
2017-03-21T14:51:27.683Z,55.26
2017-03-21T14:52:36.355Z,55.63
2017-03-21T14:53:45.641Z,57.64
2017-03-21T14:54:55.220Z,55.63
2017-03-21T14:56:03.910Z,57.54
2017-03-21T14:57:12.593Z,58.97
2017-03-21T14:58:21.875Z,59.16
2017-03-21T14:59:31.192Z,56.49
2017-03-21T15:00:40.479Z,55.16
2017-03-21T15:01:49.442Z,52.97
2017-03-21T15:02:58.419Z,57.26
2017-03-21T15:04:07.098Z,56.78
2017-03-21T15:05:16.676Z,59.35
2017-03-21T15:06:25.348Z,57.45
2017-03-21T15:07:34.029Z,57.48
2017-03-21T15:08:42.703Z,58.52
2017-03-21T15:09:51.676Z,54.8
2017-03-21T15:11:00.342Z,48.23
2017-03-21T15:12:09.014Z,49.54
2017-03-21T15:13:17.699Z,49.44
2017-03-21T15:14:26.983Z,48.21
2017-03-21T15:15:35.957Z,47.56
2017-03-21T15:16:45.219Z,47.44
2017-03-21T15:17:53.891Z,45.06
2017-03-21T15:19:02.562Z,46.99
2017-03-21T15:20:11.244Z,46.7